createdAt,value
2023-04-12T00:00:10.623Z,20.25
2023-04-12T00:03:03.199Z,20.08
2023-04-12T00:05:31.628Z,19.40
2023-04-12T00:08:02.138Z,19.38
2023-04-12T00:10:31.882Z,22.40
2023-04-12T00:13:00.287Z,19.10
2023-04-12T00:15:28.915Z,20.05
2023-04-12T00:17:57.388Z,19.52
2023-04-12T00:20:25.728Z,19.67
2023-04-12T00:22:54.738Z,19.95
2023-04-12T00:25:23.013Z,19.55
2023-04-12T00:27:52.788Z,20.45
2023-04-12T00:30:21.047Z,20.65
2023-04-12T00:32:49.840Z,19.58
2023-04-12T00:35:18.179Z,20.15
2023-04-12T00:37:46.571Z,16.77
2023-04-12T00:40:14.872Z,18.00
2023-04-12T00:42:43.255Z,18.20
2023-04-12T00:45:13.070Z,19.30
2023-04-12T00:47:43.313Z,19.15
2023-04-12T00:50:12.745Z,20.65
2023-04-12T00:52:41.535Z,19.10
2023-04-12T00:55:10.603Z,20.00
2023-04-12T00:57:40.369Z,20.30
2023-04-12T01:00:11.518Z,17.95
2023-04-12T01:02:42.559Z,20.48
2023-04-12T01:05:14.698Z,19.30
2023-04-12T01:07:51.522Z,23.67
2023-04-12T01:10:28.792Z,24.77
2023-04-12T01:13:05.359Z,24.38
2023-04-12T01:15:35.762Z,26.88
2023-04-12T01:18:09.712Z,26.77
2023-04-12T01:20:44.500Z,26.42
2023-04-12T01:23:46.356Z,28.00
2023-04-12T01:26:33.315Z,28.27
2023-04-12T01:29:04.547Z,28.10
2023-04-12T01:31:33.126Z,28.00
2023-04-12T01:34:03.157Z,26.23
2023-04-12T01:36:31.642Z,24.92
2023-04-12T01:39:00.892Z,24.83
2023-04-12T01:41:29.464Z,28.88
2023-04-12T01:43:58.135Z,22.92
2023-04-12T01:46:27.988Z,25.95
2023-04-12T01:48:57.097Z,27.20
2023-04-12T01:51:35.982Z,24.40
2023-04-12T01:54:11.312Z,26.55
2023-04-12T01:56:41.365Z,23.40
2023-04-12T01:59:11.279Z,24.48
2023-04-12T02:01:40.892Z,25.27
2023-04-12T02:04:09.841Z,24.42
2023-04-12T02:06:38.206Z,22.50
2023-04-12T02:09:06.858Z,24.92
2023-04-12T02:11:35.485Z,22.85
2023-04-12T02:14:03.849Z,23.02
2023-04-12T02:16:32.422Z,23.90
2023-04-12T02:19:02.542Z,23.17
2023-04-12T02:21:30.870Z,24.02
2023-04-12T02:23:59.639Z,21.83
2023-04-12T02:26:28.006Z,21.75
2023-04-12T02:28:56.646Z,21.83
2023-04-12T02:31:25.447Z,21.42
2023-04-12T02:33:54.147Z,19.77
2023-04-12T02:36:23.745Z,19.80
2023-04-12T02:38:52.278Z,19.30
2023-04-12T02:41:20.516Z,20.10
2023-04-12T02:43:49.285Z,20.60
2023-04-12T02:46:19.785Z,20.15
2023-04-12T02:48:48.750Z,20.23
2023-04-12T02:51:17.003Z,20.48
2023-04-12T02:53:46.935Z,20.60
2023-04-12T02:56:15.684Z,20.50
2023-04-12T02:58:44.220Z,20.40
2023-04-12T03:01:13.231Z,19.80
2023-04-12T03:03:41.966Z,20.27
2023-04-12T03:06:10.783Z,20.15
2023-04-12T03:08:39.741Z,19.55
2023-04-12T03:11:09.385Z,20.17
2023-04-12T03:13:37.731Z,18.20
2023-04-12T03:16:22.378Z,18.15
2023-04-12T03:18:51.641Z,16.58
2023-04-12T03:21:19.792Z,16.80
2023-04-12T03:23:48.196Z,17.52
2023-04-12T03:26:20.368Z,16.35
2023-04-12T03:28:49.092Z,17.00
2023-04-12T03:31:21.520Z,16.13
2023-04-12T03:33:49.973Z,17.00
2023-04-12T03:36:18.227Z,16.05
2023-04-12T03:38:46.582Z,16.10
2023-04-12T03:41:15.260Z,16.83
2023-04-12T03:43:45.285Z,16.08
2023-04-12T03:46:15.512Z,15.80
2023-04-12T03:48:44.221Z,15.30
2023-04-12T03:51:13.004Z,14.75
2023-04-12T03:53:41.476Z,15.73
2023-04-12T03:56:10.169Z,15.57
2023-04-12T03:58:38.638Z,13.60
2023-04-12T04:01:09.296Z,13.15
2023-04-12T04:03:38.104Z,14.65
2023-04-12T04:06:06.946Z,14.20
2023-04-12T04:08:35.358Z,14.02
2023-04-12T04:11:03.476Z,13.52
2023-04-12T04:13:31.857Z,13.23
2023-04-12T04:16:03.146Z,11.52
2023-04-12T04:18:34.717Z,12.98
2023-04-12T04:21:02.901Z,12.38
2023-04-12T04:23:38.856Z,13.30
2023-04-12T04:26:10.425Z,12.13
2023-04-12T04:28:39.376Z,12.07
2023-04-12T04:31:07.631Z,11.38
2023-04-12T04:33:37.628Z,12.20
2023-04-12T04:36:07.213Z,12.40
2023-04-12T04:38:35.622Z,11.57
2023-04-12T04:41:04.448Z,12.65
2023-04-12T04:43:34.172Z,12.23
2023-04-12T04:46:02.456Z,12.65
2023-04-12T04:48:30.986Z,11.75
2023-04-12T04:51:01.718Z,11.77
2023-04-12T04:53:30.122Z,12.38
2023-04-12T04:56:01.340Z,10.73
2023-04-12T04:58:29.745Z,11.57
2023-04-12T05:00:59.524Z,10.80
2023-04-12T05:03:30.537Z,11.00
2023-04-12T05:06:00.683Z,10.40
2023-04-12T05:08:29.657Z,11.38
2023-04-12T05:10:58.276Z,11.15
2023-04-12T05:13:26.835Z,10.77
2023-04-12T05:15:55.027Z,11.57
2023-04-12T05:18:23.423Z,10.88
2023-04-12T05:20:51.538Z,10.52
2023-04-12T05:23:21.795Z,10.70
2023-04-12T05:25:49.989Z,11.40
2023-04-12T05:28:18.586Z,12.57
2023-04-12T05:30:46.911Z,12.18
2023-04-12T05:33:15.744Z,11.65
2023-04-12T05:35:44.020Z,12.02
2023-04-12T05:38:12.408Z,13.95
2023-04-12T05:40:44.016Z,12.20
2023-04-12T05:43:13.496Z,18.05
2023-04-12T05:45:42.176Z,12.07
2023-04-12T05:48:10.892Z,12.65
2023-04-12T05:50:39.363Z,16.90
2023-04-12T05:53:08.175Z,18.83
2023-04-12T05:55:38.086Z,14.35
2023-04-12T05:58:08.055Z,15.90
2023-04-12T06:00:36.952Z,14.45
2023-04-12T06:03:05.562Z,14.50
2023-04-12T06:05:35.568Z,14.35
2023-04-12T06:08:05.272Z,13.52
2023-04-12T06:10:33.953Z,14.57
2023-04-12T06:13:02.348Z,13.73
2023-04-12T06:15:32.077Z,13.20
2023-04-12T06:18:00.817Z,14.13
2023-04-12T06:20:29.412Z,13.30
2023-04-12T06:22:57.929Z,13.38
2023-04-12T06:25:26.553Z,13.00
2023-04-12T06:27:55.127Z,13.57
2023-04-12T06:30:23.364Z,12.15
2023-04-12T06:32:53.250Z,13.30
2023-04-12T06:35:21.741Z,13.60
2023-04-12T06:37:50.402Z,12.55
2023-04-12T06:40:18.686Z,12.98
2023-04-12T06:42:47.159Z,13.25
2023-04-12T06:45:15.417Z,14.13
2023-04-12T06:47:43.783Z,13.10
2023-04-12T06:50:13.638Z,13.73
2023-04-12T06:52:42.147Z,13.57
2023-04-12T06:55:10.838Z,12.38
2023-04-12T06:57:39.219Z,12.50
2023-04-12T07:00:08.886Z,13.02
2023-04-12T07:02:38.615Z,12.45
2023-04-12T07:05:07.876Z,10.90
2023-04-12T07:07:37.602Z,12.18
2023-04-12T07:10:07.040Z,12.20
2023-04-12T07:12:35.912Z,11.98
2023-04-12T07:15:04.205Z,12.82
2023-04-12T07:17:32.621Z,13.93
2023-04-12T07:20:01.108Z,14.00
2023-04-12T07:22:29.538Z,13.95
2023-04-12T07:24:59.197Z,14.90
2023-04-12T07:27:27.835Z,13.63
2023-04-12T07:29:57.997Z,14.75
2023-04-12T07:32:27.245Z,14.25
2023-04-12T07:34:55.777Z,15.52
2023-04-12T07:37:24.276Z,15.43
2023-04-12T07:39:52.946Z,17.73
2023-04-12T07:42:23.075Z,17.65
2023-04-12T07:44:51.178Z,15.57
2023-04-12T07:47:19.639Z,16.75
2023-04-12T07:49:48.207Z,17.55
2023-04-12T07:52:16.727Z,16.48
2023-04-12T07:54:44.916Z,15.95
2023-04-12T07:57:13.326Z,15.63
2023-04-12T07:59:42.864Z,16.40
2023-04-12T08:02:11.330Z,16.58
2023-04-12T08:04:41.980Z,17.75
2023-04-12T08:07:10.609Z,16.67
2023-04-12T08:09:38.837Z,16.52
2023-04-12T08:12:07.811Z,16.98
2023-04-12T08:14:36.081Z,16.40
2023-04-12T08:17:06.242Z,16.60
2023-04-12T08:19:35.097Z,16.13
2023-04-12T08:22:04.375Z,16.60
2023-04-12T08:24:32.672Z,14.80
2023-04-12T08:27:01.775Z,15.85
2023-04-12T08:29:30.043Z,15.65
2023-04-12T08:32:00.758Z,14.43
2023-04-12T08:34:30.562Z,16.00
2023-04-12T08:37:00.622Z,15.70
2023-04-12T08:39:28.745Z,15.73
2023-04-12T08:41:58.200Z,15.80
2023-04-12T08:44:36.515Z,15.40
2023-04-12T08:47:06.119Z,14.95
2023-04-12T08:49:36.423Z,15.13
2023-04-12T08:52:06.957Z,14.68
2023-04-12T08:54:36.032Z,13.50
2023-04-12T08:57:06.545Z,14.10
2023-04-12T08:59:39.193Z,14.40
2023-04-12T09:02:07.885Z,14.25
2023-04-12T09:04:48.818Z,14.90
2023-04-12T09:07:17.652Z,13.95
2023-04-12T09:09:46.876Z,12.57
2023-04-12T09:12:16.352Z,14.43
2023-04-12T09:14:44.943Z,13.05
2023-04-12T09:17:23.953Z,12.40
2023-04-12T09:19:55.881Z,11.90
2023-04-12T09:25:02.472Z,11.73
2023-04-12T09:27:30.946Z,11.80
2023-04-12T09:30:09.058Z,11.23
2023-04-12T09:32:37.723Z,12.98
2023-04-12T09:35:08.516Z,11.85
2023-04-12T09:37:36.986Z,11.85
2023-04-12T09:40:06.498Z,11.25
2023-04-12T09:42:36.154Z,10.50
2023-04-12T09:45:21.623Z,11.25
2023-04-12T09:47:50.855Z,10.02
2023-04-12T09:50:23.996Z,8.85
2023-04-12T09:52:53.356Z,9.70
2023-04-12T09:55:22.932Z,9.98
2023-04-12T09:57:52.708Z,8.70
2023-04-12T10:00:25.400Z,8.43
2023-04-12T10:02:55.929Z,7.95
2023-04-12T10:05:27.412Z,5.57
2023-04-12T10:07:57.324Z,5.57
2023-04-12T10:10:26.068Z,5.57
2023-04-12T10:12:54.775Z,5.18
2023-04-12T10:15:23.445Z,5.90
2023-04-12T10:17:53.664Z,8.30
2023-04-12T10:20:24.763Z,6.85
2023-04-12T10:22:56.315Z,7.13
2023-04-12T10:25:26.878Z,6.40
2023-04-12T10:27:55.497Z,6.63
2023-04-12T10:30:25.401Z,5.32
2023-04-12T10:33:13.738Z,5.80
2023-04-12T10:35:53.350Z,4.57
2023-04-12T10:38:25.075Z,4.45
2023-04-12T10:41:17.939Z,4.50
2023-04-12T10:43:47.105Z,3.80
2023-04-12T10:46:51.223Z,4.25
2023-04-12T10:49:20.152Z,4.88
2023-04-12T10:52:13.433Z,5.30
2023-04-12T10:54:43.733Z,6.18
2023-04-12T10:57:43.350Z,4.88
2023-04-12T11:00:13.040Z,4.55
2023-04-12T11:03:13.011Z,4.25
2023-04-12T11:06:06.442Z,3.70
2023-04-12T11:08:41.140Z,3.38
2023-04-12T11:11:22.658Z,3.70
2023-04-12T11:13:56.974Z,3.40
2023-04-12T11:16:25.684Z,2.83
2023-04-12T11:18:55.682Z,3.08
2023-04-12T11:21:24.792Z,4.53
2023-04-12T11:23:54.606Z,3.72
2023-04-12T11:26:25.675Z,3.83
2023-04-12T11:28:55.853Z,2.20
2023-04-12T11:31:24.839Z,2.83
2023-04-12T11:33:53.585Z,2.58
2023-04-12T11:36:22.340Z,2.60
2023-04-12T11:38:51.143Z,2.72
2023-04-12T11:41:19.719Z,2.33
2023-04-12T11:43:49.663Z,2.60
2023-04-12T11:46:18.623Z,2.33
2023-04-12T11:48:47.776Z,2.50
2023-04-12T11:51:24.851Z,2.25
2023-04-12T11:53:57.340Z,2.03
2023-04-12T11:56:26.406Z,2.20
2023-04-12T11:58:56.145Z,3.05
2023-04-12T12:01:25.635Z,2.55
2023-04-12T12:03:54.555Z,3.30
2023-04-12T12:06:24.519Z,4.03
2023-04-12T12:08:53.712Z,3.78
2023-04-12T12:11:23.473Z,3.67
2023-04-12T12:13:52.745Z,4.00
2023-04-12T12:16:28.771Z,3.40
2023-04-12T12:18:58.363Z,2.88
2023-04-12T12:21:28.592Z,4.30
2023-04-12T12:23:58.844Z,3.47
2023-04-12T12:26:29.170Z,2.85
2023-04-12T12:29:00.467Z,3.35
2023-04-12T12:31:31.202Z,3.03
2023-04-12T12:34:01.094Z,3.45
2023-04-12T12:36:34.316Z,4.75
2023-04-12T12:39:09.957Z,5.05
2023-04-12T12:41:39.063Z,4.47
2023-04-12T12:44:08.214Z,3.85
2023-04-12T12:49:09.793Z,3.65
2023-04-12T12:51:38.313Z,3.63
2023-04-12T12:54:07.731Z,4.25
2023-04-12T12:56:37.075Z,4.63
2023-04-12T12:59:05.604Z,3.90
2023-04-12T13:01:34.212Z,4.15
2023-04-12T13:04:04.384Z,3.85
2023-04-12T13:06:33.073Z,3.63
2023-04-12T13:09:01.482Z,3.30
2023-04-12T13:11:30.205Z,4.45
2023-04-12T13:13:58.509Z,5.45
2023-04-12T13:16:27.248Z,3.58
2023-04-12T13:18:57.323Z,4.13
2023-04-12T13:21:27.441Z,5.18
2023-04-12T13:23:55.748Z,4.88
2023-04-12T13:26:25.639Z,5.22
2023-04-12T13:28:54.031Z,4.68
2023-04-12T13:31:22.477Z,4.47
2023-04-12T13:33:50.950Z,4.82
2023-04-12T13:36:19.667Z,5.72
2023-04-12T13:38:49.401Z,4.13
2023-04-12T13:41:19.107Z,4.25
2023-04-12T13:43:47.500Z,5.88
2023-04-12T13:46:16.039Z,5.32
2023-04-12T13:48:44.367Z,3.47
2023-04-12T13:51:12.971Z,2.83
2023-04-12T13:53:41.325Z,3.88
2023-04-12T13:56:12.006Z,4.00
2023-04-12T13:58:40.624Z,4.07
2023-04-12T14:01:09.272Z,4.32
2023-04-12T14:03:38.303Z,3.78
2023-04-12T14:06:07.849Z,4.05
2023-04-12T14:08:36.138Z,4.47
2023-04-12T14:11:05.076Z,3.35
2023-04-12T14:13:34.763Z,3.28
2023-04-12T14:16:03.777Z,3.45
2023-04-12T14:18:32.331Z,3.60
2023-04-12T14:21:00.941Z,2.42
2023-04-12T14:23:30.754Z,3.00
2023-04-12T14:25:59.442Z,2.88
2023-04-12T14:28:30.826Z,2.83
2023-04-12T14:31:03.086Z,3.03
2023-04-12T14:33:33.417Z,3.45
2023-04-12T14:36:05.095Z,4.90
2023-04-12T14:38:33.549Z,2.47
2023-04-12T14:41:02.438Z,3.03
2023-04-12T14:43:30.714Z,3.30
2023-04-12T14:46:00.641Z,2.22
2023-04-12T14:48:29.005Z,2.55
2023-04-12T14:50:57.822Z,5.00
2023-04-12T14:53:26.061Z,2.30
2023-04-12T14:55:54.642Z,2.75
2023-04-12T14:58:23.040Z,3.30
2023-04-12T15:00:51.733Z,3.38
2023-04-12T15:03:21.742Z,5.35
2023-04-12T15:05:50.395Z,4.43
2023-04-12T15:08:18.577Z,3.08
2023-04-12T15:10:47.653Z,2.55
2023-04-12T15:13:15.870Z,3.10
2023-04-12T15:15:47.280Z,3.20
2023-04-12T15:18:16.258Z,3.47
2023-04-12T15:20:46.243Z,3.00
2023-04-12T15:23:14.418Z,2.70
2023-04-12T15:25:43.143Z,4.13
2023-04-12T15:28:11.327Z,2.63
2023-04-12T15:30:40.075Z,2.90
2023-04-12T15:33:08.489Z,2.88
2023-04-12T15:35:37.171Z,2.78
2023-04-12T15:38:06.887Z,3.33
2023-04-12T15:40:35.402Z,3.17
2023-04-12T15:43:03.725Z,2.95
2023-04-12T15:45:32.374Z,3.45
2023-04-12T15:48:00.662Z,3.22
2023-04-12T15:50:29.133Z,4.55
2023-04-12T15:52:59.239Z,3.67
2023-04-12T15:55:29.130Z,3.78
2023-04-12T15:57:57.370Z,4.03
2023-04-12T16:00:26.817Z,4.45
2023-04-12T16:02:56.295Z,4.32
2023-04-12T16:05:26.526Z,4.13
2023-04-12T16:07:56.783Z,4.78
2023-04-12T16:10:25.371Z,3.90
2023-04-12T16:12:56.476Z,4.20
2023-04-12T16:15:25.018Z,4.47
2023-04-12T16:17:54.491Z,5.53
2023-04-12T16:20:24.269Z,4.30
2023-04-12T16:22:55.039Z,4.32
2023-04-12T16:25:24.201Z,4.32
2023-04-12T16:27:52.442Z,5.30
2023-04-12T16:30:22.791Z,5.25
2023-04-12T16:32:52.171Z,5.43
2023-04-12T16:35:21.294Z,7.28
2023-04-12T16:37:49.749Z,6.13
2023-04-12T16:40:18.421Z,6.47
2023-04-12T16:42:46.741Z,4.70
2023-04-12T16:45:16.026Z,5.47
2023-04-12T16:47:47.482Z,5.45
2023-04-12T16:50:16.630Z,6.15
2023-04-12T16:52:45.079Z,6.80
2023-04-12T16:55:14.431Z,4.63
2023-04-12T16:57:44.369Z,5.00
2023-04-12T17:00:20.547Z,5.93
2023-04-12T17:02:52.806Z,5.78
2023-04-12T17:05:22.448Z,5.47
2023-04-12T17:07:53.567Z,5.00
2023-04-12T17:10:23.664Z,4.57
2023-04-12T17:12:53.273Z,5.50
2023-04-12T17:15:22.910Z,6.55
2023-04-12T17:17:53.482Z,5.82
2023-04-12T17:20:23.300Z,6.85
2023-04-12T17:22:52.142Z,7.22
2023-04-12T17:25:22.307Z,7.15
2023-04-12T17:27:52.534Z,6.47
2023-04-12T17:30:21.124Z,6.75
2023-04-12T17:32:49.600Z,7.65
2023-04-12T17:35:20.601Z,6.95
2023-04-12T17:37:49.050Z,7.35
2023-04-12T17:40:17.549Z,7.70
2023-04-12T17:42:45.783Z,7.65
2023-04-12T17:45:14.768Z,8.48
2023-04-12T17:47:43.878Z,8.60
2023-04-12T17:50:13.377Z,10.63
2023-04-12T17:52:42.917Z,12.93
2023-04-12T17:55:12.395Z,14.07
2023-04-12T17:57:41.158Z,14.38
2023-04-12T18:00:11.702Z,14.27
2023-04-12T18:02:40.779Z,14.40
2023-04-12T18:05:10.211Z,14.32
2023-04-12T18:07:39.908Z,14.98
2023-04-12T18:10:12.597Z,15.23
2023-04-12T18:12:41.217Z,14.93
2023-04-12T18:15:11.020Z,15.50
2023-04-12T18:17:40.868Z,12.43
2023-04-12T18:20:11.510Z,14.30
2023-04-12T18:22:40.022Z,14.10
2023-04-12T18:25:11.667Z,14.93
2023-04-12T18:27:39.918Z,13.90
2023-04-12T18:30:09.608Z,13.30
2023-04-12T18:32:38.176Z,15.15
2023-04-12T18:35:08.006Z,16.13
2023-04-12T18:37:38.064Z,19.20
2023-04-12T18:40:08.400Z,19.92
2023-04-12T18:42:38.526Z,20.02
2023-04-12T18:45:08.855Z,20.25
2023-04-12T18:47:39.079Z,19.23
2023-04-12T18:50:09.095Z,19.27
2023-04-12T18:52:37.629Z,20.17
2023-04-12T18:55:07.394Z,19.83
2023-04-12T18:57:36.445Z,19.65
2023-04-12T19:00:13.520Z,20.20
2023-04-12T19:02:42.199Z,24.08
2023-04-12T19:05:12.081Z,24.15
2023-04-12T19:07:40.823Z,23.50
2023-04-12T19:10:10.113Z,23.85
2023-04-12T19:12:38.312Z,21.77
2023-04-12T19:15:09.871Z,17.95
2023-04-12T19:17:39.111Z,19.20
2023-04-12T19:20:09.208Z,19.60
2023-04-12T19:22:37.658Z,18.48
2023-04-12T19:25:07.179Z,17.95
2023-04-12T19:27:35.442Z,18.25
2023-04-12T19:30:04.636Z,18.58
2023-04-12T19:32:34.558Z,16.88
2023-04-12T19:35:03.197Z,17.83
2023-04-12T19:37:34.094Z,19.63
2023-04-12T19:40:03.365Z,17.02
2023-04-12T19:42:31.751Z,18.77
2023-04-12T19:45:00.688Z,19.02
2023-04-12T19:47:28.939Z,19.35
2023-04-12T19:49:59.487Z,19.30
2023-04-12T19:52:28.585Z,20.33
2023-04-12T19:54:57.183Z,20.00
2023-04-12T19:57:25.555Z,20.50
2023-04-12T19:59:54.024Z,21.35
2023-04-12T20:02:22.345Z,21.10
2023-04-12T20:04:51.244Z,22.23
2023-04-12T20:07:20.790Z,23.25
2023-04-12T20:09:49.382Z,22.52
2023-04-12T20:12:18.939Z,22.63
2023-04-12T20:14:47.595Z,22.90
2023-04-12T20:17:16.163Z,23.33
2023-04-12T20:19:44.546Z,25.20
2023-04-12T20:22:13.558Z,25.05
2023-04-12T20:24:43.676Z,24.50
2023-04-12T20:27:16.852Z,25.80
2023-04-12T20:29:46.574Z,24.23
2023-04-12T20:32:15.381Z,26.85
2023-04-12T20:34:46.814Z,26.20
2023-04-12T20:37:15.647Z,26.02
2023-04-12T20:39:45.490Z,27.55
2023-04-12T20:42:16.251Z,26.67
2023-04-12T20:44:45.307Z,27.90
2023-04-12T20:47:13.417Z,29.00
2023-04-12T20:49:42.433Z,29.00
2023-04-12T20:52:10.919Z,28.80
2023-04-12T20:54:39.341Z,28.52
2023-04-12T20:57:09.524Z,30.40
2023-04-12T20:59:38.386Z,31.35
2023-04-12T21:02:06.576Z,30.67
2023-04-12T21:04:36.281Z,31.52
2023-04-12T21:07:05.942Z,31.90
2023-04-12T21:09:34.337Z,33.33
2023-04-12T21:12:06.071Z,34.15
2023-04-12T21:14:37.671Z,36.25
2023-04-12T21:17:07.212Z,35.58
2023-04-12T21:19:40.955Z,35.28
2023-04-12T21:22:09.579Z,34.38
2023-04-12T21:24:38.813Z,35.05
2023-04-12T21:27:08.308Z,35.33
2023-04-12T21:29:41.382Z,34.72
2023-04-12T21:32:10.737Z,35.40
2023-04-12T21:34:39.211Z,32.90
2023-04-12T21:37:07.648Z,35.17
2023-04-12T21:39:36.241Z,35.45
2023-04-12T21:42:04.514Z,34.22
2023-04-12T21:44:32.939Z,35.58
2023-04-12T21:47:02.492Z,36.40
2023-04-12T21:49:31.446Z,36.28
2023-04-12T21:51:59.585Z,34.25
2023-04-12T21:54:28.923Z,35.80
2023-04-12T21:56:57.345Z,36.58
2023-04-12T21:59:26.778Z,35.50
2023-04-12T22:01:55.130Z,37.75
2023-04-12T22:04:25.045Z,35.88
2023-04-12T22:06:53.196Z,37.13
2023-04-12T22:09:21.713Z,35.85
2023-04-12T22:11:50.140Z,37.67
2023-04-12T22:14:18.722Z,38.47
2023-04-12T22:16:47.009Z,38.65
2023-04-12T22:19:16.323Z,40.78
2023-04-12T22:21:48.513Z,39.15
2023-04-12T22:24:17.774Z,38.92
2023-04-12T22:26:45.909Z,40.40
2023-04-12T22:29:17.637Z,39.58
2023-04-12T22:31:46.921Z,40.97
2023-04-12T22:34:15.492Z,42.63
2023-04-12T22:36:46.669Z,41.88
2023-04-12T22:39:15.634Z,43.10
2023-04-12T22:41:49.682Z,39.85
2023-04-12T22:44:18.351Z,39.75
2023-04-12T22:46:48.140Z,42.47
2023-04-12T22:49:17.031Z,38.75
2023-04-12T22:51:46.537Z,39.95
2023-04-12T22:54:14.956Z,40.33
2023-04-12T22:56:45.035Z,40.33
2023-04-12T22:59:14.314Z,37.95
2023-04-12T23:01:42.740Z,37.47
2023-04-12T23:04:12.109Z,38.42
2023-04-12T23:06:41.583Z,37.22
2023-04-12T23:09:12.564Z,38.45
2023-04-12T23:11:41.986Z,38.55
2023-04-12T23:14:11.005Z,35.88
2023-04-12T23:16:44.144Z,37.95
2023-04-12T23:19:13.026Z,39.10
2023-04-12T23:21:41.212Z,38.47
2023-04-12T23:24:12.055Z,39.20
2023-04-12T23:26:40.398Z,37.25
2023-04-12T23:29:08.951Z,38.33
2023-04-12T23:31:37.154Z,35.55
2023-04-12T23:34:06.352Z,35.83
2023-04-12T23:36:35.072Z,37.28
2023-04-12T23:39:08.465Z,38.30
2023-04-12T23:41:40.652Z,38.85
2023-04-12T23:44:09.222Z,38.13
2023-04-12T23:46:37.426Z,37.90
2023-04-12T23:49:05.828Z,38.50
2023-04-12T23:51:34.084Z,38.80
2023-04-12T23:54:02.547Z,37.67
2023-04-12T23:56:30.678Z,38.10
2023-04-12T23:59:00.532Z,36.92
